Time;durP1;ratioP1;P1;durP2;ratioP2;P2;SDS_P1;SDS_P2;PMS_P1;PMS_P2;Temp;Humidity;BMP_temperature;BMP_pressure;BME280_temperature;BME280_humidity;BME280_pressure;Samples;Min_cycle;Max_cycle;Signal;HPM_P1;HPM_P2
2022/03/18 00:02:14;;;;;;;13.83;7.83;;;2.40;99.90;;;;;;5024397;28;20088;-76
2022/03/18 00:04:41;;;;;;;18.13;10.40;;;2.30;99.90;;;;;;5042020;28;20049;-76
2022/03/18 00:07:07;;;;;;;25.03;14.97;;;2.30;99.90;;;;;;5025374;28;20071;-75
2022/03/18 00:09:33;;;;;;;20.10;11.03;;;2.30;99.90;;;;;;5040658;28;20496;-76
2022/03/18 00:11:59;;;;;;;20.17;9.80;;;2.30;99.90;;;;;;5041376;28;20565;-76
2022/03/18 00:14:25;;;;;;;26.47;13.80;;;2.30;99.90;;;;;;5024790;28;20057;-76
2022/03/18 00:16:51;;;;;;;19.87;10.97;;;2.30;99.90;;;;;;5041397;28;20048;-76
2022/03/18 00:19:18;;;;;;;23.63;14.60;;;2.30;99.90;;;;;;5058084;28;20041;-75
2022/03/18 00:21:43;;;;;;;34.70;19.40;;;2.30;99.90;;;;;;5040882;28;20110;-75
2022/03/18 00:24:09;;;;;;;29.63;19.37;;;2.30;99.90;;;;;;5043957;28;20037;-75
2022/03/18 00:26:35;;;;;;;30.57;18.33;;;2.30;99.90;;;;;;5028649;28;20705;-75
2022/03/18 00:29:02;;;;;;;30.93;18.10;;;2.30;99.90;;;;;;5044714;28;20232;-75
2022/03/18 00:31:29;;;;;;;32.40;19.90;;;2.30;99.90;;;;;;5043646;28;20045;-75
2022/03/18 00:33:59;;;;;;;29.47;16.67;;;2.30;99.90;;;;;;5044821;28;20033;-75
2022/03/18 00:36:25;;;;;;;22.88;13.90;;;2.30;99.90;;;;;;5027785;28;20041;-76
2022/03/18 00:38:51;;;;;;;22.43;12.17;;;2.30;99.90;;;;;;5027577;28;20115;-76
2022/03/18 00:41:18;;;;;;;23.20;13.13;;;2.30;99.90;;;;;;5027739;28;20160;-75
2022/03/18 00:43:44;;;;;;;21.40;12.93;;;2.30;99.90;;;;;;5010667;28;20055;-75
2022/03/18 00:46:10;;;;;;;24.67;12.30;;;2.20;99.90;;;;;;5011595;28;21009;-74
2022/03/18 00:54:04;;;;;;;31.07;17.13;;;2.20;99.90;;;;;;5043231;28;20136;-71
2022/03/18 00:56:29;;;;;;;24.53;15.03;;;2.20;99.90;;;;;;5044079;28;20163;-71
2022/03/18 00:58:56;;;;;;;34.07;16.30;;;2.20;99.90;;;;;;5041542;28;20124;-71
2022/03/18 01:01:23;;;;;;;26.73;13.37;;;2.20;99.90;;;;;;5026623;28;20103;-71
2022/03/18 01:03:49;;;;;;;22.87;12.53;;;2.20;99.90;;;;;;5026605;28;20041;-71
2022/03/18 01:06:14;;;;;;;28.27;15.33;;;2.20;99.90;;;;;;5027276;28;20399;-71
2022/03/18 01:08:40;;;;;;;22.07;13.43;;;2.30;99.90;;;;;;5008791;28;20061;-71
2022/03/18 01:11:06;;;;;;;20.13;12.87;;;2.20;99.90;;;;;;5043428;28;20643;-71
2022/03/18 01:13:32;;;;;;;20.50;11.70;;;2.20;99.90;;;;;;5007659;28;20059;-72
2022/03/18 01:15:58;;;;;;;21.63;12.63;;;2.20;99.90;;;;;;5039752;28;20068;-71
2022/03/18 01:18:23;;;;;;;25.23;17.57;;;2.10;99.90;;;;;;5027780;28;20040;-71
2022/03/18 01:20:49;;;;;;;32.70;17.10;;;2.10;99.90;;;;;;5026922;28;20395;-71
2022/03/18 01:23:15;;;;;;;21.17;12.37;;;2.10;99.90;;;;;;5043937;28;20041;-71
2022/03/18 01:25:41;;;;;;;18.93;11.27;;;2.10;99.90;;;;;;5027585;28;20053;-71
2022/03/18 01:28:07;;;;;;;20.23;12.03;;;2.10;99.90;;;;;;5008623;28;20681;-71
2022/03/18 01:30:33;;;;;;;20.73;13.37;;;2.10;99.90;;;;;;5026957;28;20083;-72
2022/03/18 01:33:02;;;;;;;19.20;12.33;;;2.10;99.90;;;;;;5042936;28;20132;-70
2022/03/18 01:35:29;;;;;;;19.40;11.10;;;2.10;99.90;;;;;;5042375;28;20056;-71
2022/03/18 01:37:55;;;;;;;21.23;11.73;;;2.10;99.90;;;;;;5026666;28;20037;-71
2022/03/18 01:40:21;;;;;;;15.93;10.60;;;2.10;99.90;;;;;;5027832;28;20077;-71
2022/03/18 01:42:47;;;;;;;26.97;16.73;;;2.00;99.90;;;;;;5043420;28;20143;-71
2022/03/18 01:45:13;;;;;;;19.53;12.33;;;2.00;99.90;;;;;;5027607;28;20462;-71
2022/03/18 01:47:45;;;;;;;20.87;12.30;;;2.00;99.90;;;;;;5027289;28;20071;-71
2022/03/18 01:50:13;;;;;;;21.47;14.20;;;2.00;99.90;;;;;;5026863;28;20033;-71
2022/03/18 01:52:39;;;;;;;29.87;17.33;;;2.00;99.90;;;;;;5025802;28;20095;-71
2022/03/18 01:55:06;;;;;;;26.30;14.67;;;2.00;99.90;;;;;;5007209;28;20475;-71
2022/03/18 01:57:31;;;;;;;31.47;18.87;;;2.00;99.90;;;;;;5023329;28;20083;-71
2022/03/18 01:59:57;;;;;;;32.47;19.33;;;1.80;99.90;;;;;;5026357;28;20049;-71
2022/03/18 02:02:24;;;;;;;32.67;20.87;;;1.90;99.90;;;;;;5025633;28;20491;-72
2022/03/18 02:04:51;;;;;;;19.63;12.20;;;1.90;99.90;;;;;;5025542;28;20033;-71
2022/03/18 02:07:17;;;;;;;22.87;13.30;;;1.90;99.90;;;;;;5025049;28;20094;-71
2022/03/18 02:09:44;;;;;;;23.47;13.60;;;1.90;99.90;;;;;;5042387;28;20044;-71
2022/03/18 02:12:11;;;;;;;23.23;15.90;;;1.90;99.90;;;;;;5025941;28;20044;-72
2022/03/18 02:14:40;;;;;;;20.97;13.97;;;1.90;99.90;;;;;;5040418;28;20057;-72
2022/03/18 02:17:08;;;;;;;22.07;14.57;;;1.90;99.90;;;;;;5023552;28;20037;-72
2022/03/18 02:19:35;;;;;;;25.90;15.10;;;1.90;99.90;;;;;;5042353;28;20405;-71
2022/03/18 02:22:08;;;;;;;19.43;13.63;;;1.90;99.90;;;;;;5042436;28;20047;-72
2022/03/18 02:24:37;;;;;;;21.50;13.63;;;1.80;99.90;;;;;;5023255;28;20122;-72
2022/03/18 02:27:03;;;;;;;23.90;14.97;;;1.80;99.90;;;;;;5041993;28;20127;-72
2022/03/18 02:29:29;;;;;;;22.53;13.17;;;1.80;99.90;;;;;;5042215;28;20397;-72
2022/03/18 02:31:54;;;;;;;20.33;14.53;;;1.90;99.90;;;;;;5041090;28;20055;-72
2022/03/18 02:34:22;;;;;;;27.53;18.17;;;1.90;99.90;;;;;;5026434;28;20404;-71
2022/03/18 02:36:49;;;;;;;25.60;15.20;;;1.80;99.90;;;;;;5006942;28;20343;-72
2022/03/18 02:39:15;;;;;;;25.63;17.23;;;1.80;99.90;;;;;;5038835;28;20037;-71
2022/03/18 02:41:41;;;;;;;29.37;22.33;;;1.80;99.90;;;;;;5052086;28;20522;-71
2022/03/18 02:44:07;;;;;;;29.73;17.37;;;1.80;99.90;;;;;;5042077;28;20044;-72
2022/03/18 02:46:33;;;;;;;20.93;13.53;;;1.80;99.90;;;;;;5025861;28;20380;-72
2022/03/18 02:49:00;;;;;;;18.87;12.43;;;1.80;99.90;;;;;;5041440;28;20091;-72
2022/03/18 02:51:27;;;;;;;20.43;14.13;;;1.80;99.90;;;;;;5040472;28;20131;-73
2022/03/18 02:53:53;;;;;;;20.50;13.67;;;1.80;99.90;;;;;;5022452;28;21269;-72
2022/03/18 02:56:19;;;;;;;23.53;14.60;;;1.80;99.90;;;;;;5026746;28;20128;-75
2022/03/18 02:58:44;;;;;;;24.27;16.17;;;1.90;99.90;;;;;;5025499;28;20045;-75
2022/03/18 03:01:10;;;;;;;28.40;18.70;;;1.80;99.90;;;;;;5022696;28;20091;-75
2022/03/18 03:03:36;;;;;;;31.40;20.60;;;1.80;99.90;;;;;;5023529;28;20124;-75
2022/03/18 03:08:46;;;;;;;24.97;16.30;;;1.80;99.90;;;;;;5041506;28;20077;-74
2022/03/18 03:11:12;;;;;;;26.97;17.40;;;1.80;99.90;;;;;;5007598;28;20072;-75
2022/03/18 03:13:38;;;;;;;43.20;28.93;;;1.80;99.90;;;;;;5006991;28;20050;-75
2022/03/18 03:16:04;;;;;;;37.83;26.80;;;1.80;99.90;;;;;;4992605;28;20080;-75
2022/03/18 03:18:30;;;;;;;22.60;16.93;;;1.80;99.90;;;;;;5020862;28;20072;-75
2022/03/18 03:20:57;;;;;;;33.00;25.80;;;1.80;99.90;;;;;;5024764;28;20049;-76
2022/03/18 03:23:26;;;;;;;42.67;29.47;;;1.80;99.90;;;;;;5042167;28;20114;-76
2022/03/18 03:25:52;;;;;;;46.43;33.53;;;1.80;99.90;;;;;;5004049;28;20515;-76
2022/03/18 03:28:18;;;;;;;32.53;22.67;;;1.80;99.90;;;;;;5040953;28;20098;-73
2022/03/18 03:30:44;;;;;;;30.37;19.60;;;1.80;99.90;;;;;;5040306;28;20049;-73
2022/03/18 03:33:11;;;;;;;40.90;27.07;;;1.80;99.90;;;;;;5040655;28;20128;-71
2022/03/18 03:35:38;;;;;;;26.33;17.80;;;1.80;99.90;;;;;;5040212;28;20077;-71
2022/03/18 03:38:05;;;;;;;30.17;20.43;;;1.80;99.90;;;;;;5024013;28;20942;-72
2022/03/18 03:40:31;;;;;;;28.00;20.97;;;1.80;99.90;;;;;;5007894;28;20071;-70
2022/03/18 03:42:57;;;;;;;22.13;14.60;;;1.80;99.90;;;;;;5024898;28;20525;-71
2022/03/18 03:45:23;;;;;;;22.57;14.80;;;1.70;99.90;;;;;;5024750;28;20055;-71
2022/03/18 03:47:49;;;;;;;21.90;15.90;;;1.60;99.90;;;;;;5040601;28;20059;-71
2022/03/18 03:50:16;;;;;;;21.80;16.43;;;1.60;99.90;;;;;;5007576;28;20717;-73
2022/03/18 03:52:42;;;;;;;23.00;16.07;;;1.60;99.90;;;;;;5023220;28;20379;-73
2022/03/18 03:55:09;;;;;;;21.23;14.53;;;1.60;99.90;;;;;;5024455;28;20033;-73
2022/03/18 03:57:35;;;;;;;19.33;14.90;;;1.60;99.90;;;;;;5024332;28;20491;-72
2022/03/18 04:00:01;;;;;;;35.90;24.53;;;1.60;99.90;;;;;;5011105;28;20048;-73
2022/03/18 04:02:27;;;;;;;29.87;19.77;;;1.60;99.90;;;;;;5045099;28;20195;-73
2022/03/18 04:04:53;;;;;;;46.60;32.20;;;1.70;99.90;;;;;;5028582;28;20053;-73
2022/03/18 04:07:19;;;;;;;23.57;17.67;;;1.60;99.90;;;;;;5027068;28;20079;-71
2022/03/18 04:09:49;;;;;;;34.57;26.20;;;1.60;99.90;;;;;;5028240;28;20036;-71
2022/03/18 04:12:15;;;;;;;25.63;18.55;;;1.70;99.90;;;;;;5044380;28;20040;-73
2022/03/18 04:14:41;;;;;;;40.87;30.63;;;1.70;99.90;;;;;;5027405;28;20052;-71
2022/03/18 04:17:07;;;;;;;52.47;40.53;;;1.70;99.90;;;;;;5011499;28;20047;-71
2022/03/18 04:19:32;;;;;;;39.70;32.07;;;1.70;99.90;;;;;;5028155;28;20381;-70
2022/03/18 04:21:58;;;;;;;44.23;31.90;;;1.70;99.90;;;;;;5044663;28;20041;-70
2022/03/18 04:24:24;;;;;;;45.53;37.47;;;1.70;99.90;;;;;;5045338;28;20048;-74
2022/03/18 04:26:50;;;;;;;49.40;37.67;;;1.60;99.90;;;;;;5044878;28;20053;-75
2022/03/18 04:29:16;;;;;;;42.33;31.10;;;1.70;99.90;;;;;;5045516;28;20064;-74
2022/03/18 04:31:42;;;;;;;59.47;42.10;;;1.70;99.90;;;;;;5043823;28;20399;-75
2022/03/18 04:34:08;;;;;;;34.67;25.63;;;1.60;99.90;;;;;;5044762;28;20048;-74
2022/03/18 04:36:34;;;;;;;32.37;24.87;;;1.60;99.90;;;;;;5027450;28;20142;-74
2022/03/18 04:39:01;;;;;;;25.77;16.93;;;1.50;99.90;;;;;;5028536;28;20131;-71
2022/03/18 04:41:27;;;;;;;21.40;14.90;;;1.50;99.90;;;;;;5028189;28;20337;-71
2022/03/18 04:43:53;;;;;;;29.93;19.03;;;1.50;99.90;;;;;;5027662;28;20048;-71
2022/03/18 04:46:19;;;;;;;22.03;15.43;;;1.40;99.90;;;;;;5044019;28;20037;-71
2022/03/18 04:48:44;;;;;;;21.40;14.43;;;1.40;99.90;;;;;;5027442;28;20056;-71
2022/03/18 04:51:10;;;;;;;26.80;17.33;;;1.40;99.90;;;;;;5027206;28;20094;-71
2022/03/18 04:53:36;;;;;;;23.63;16.43;;;1.40;99.90;;;;;;5042710;28;20135;-71
2022/03/18 04:56:02;;;;;;;27.87;17.67;;;1.40;99.90;;;;;;5026187;28;20045;-71
2022/03/18 04:58:28;;;;;;;24.83;18.53;;;1.50;99.90;;;;;;5042148;28;20060;-71
2022/03/18 05:00:54;;;;;;;25.20;17.50;;;1.60;99.90;;;;;;5041347;28;20045;-71
2022/03/18 05:03:20;;;;;;;24.03;16.90;;;1.40;99.90;;;;;;5027648;28;20037;-72
2022/03/18 05:05:45;;;;;;;24.57;19.17;;;1.40;99.90;;;;;;5045132;28;20510;-71
2022/03/18 05:08:11;;;;;;;31.17;25.23;;;1.40;99.90;;;;;;5027993;28;20045;-71
2022/03/18 05:10:37;;;;;;;23.43;16.43;;;1.40;99.90;;;;;;5026384;28;20080;-71
2022/03/18 05:13:03;;;;;;;23.13;17.87;;;1.40;99.90;;;;;;5044988;28;20049;-71
2022/03/18 05:15:31;;;;;;;20.90;15.90;;;1.40;99.90;;;;;;5012394;28;20053;-71
2022/03/18 05:17:57;;;;;;;21.90;15.70;;;1.40;99.90;;;;;;5045251;28;20060;-71
2022/03/18 05:20:23;;;;;;;20.30;15.70;;;1.40;99.90;;;;;;5045146;28;20048;-71
2022/03/18 05:22:51;;;;;;;24.03;16.70;;;1.40;99.90;;;;;;5011704;28;20117;-71
2022/03/18 05:25:17;;;;;;;22.23;16.13;;;1.40;99.90;;;;;;4996586;28;20076;-71
2022/03/18 05:27:44;;;;;;;18.47;14.40;;;1.40;99.90;;;;;;5045046;28;20049;-71
2022/03/18 05:30:13;;;;;;;22.63;15.37;;;1.30;99.90;;;;;;5011849;28;20051;-73
2022/03/18 05:32:40;;;;;;;24.70;17.17;;;1.40;99.90;;;;;;5043787;28;20049;-71
2022/03/18 05:35:06;;;;;;;20.17;15.60;;;1.30;99.90;;;;;;5044676;28;20045;-71
2022/03/18 05:37:32;;;;;;;31.20;23.00;;;1.30;99.90;;;;;;5028383;28;20060;-71
2022/03/18 05:39:58;;;;;;;44.50;35.77;;;1.30;99.90;;;;;;5028577;28;20049;-71
2022/03/18 05:42:25;;;;;;;21.97;18.03;;;1.30;99.90;;;;;;5028206;28;20133;-71
2022/03/18 05:44:51;;;;;;;25.27;20.50;;;1.30;99.90;;;;;;5028930;28;20546;-71
2022/03/18 05:47:17;;;;;;;27.90;19.43;;;1.30;99.90;;;;;;5043247;28;20041;-71
2022/03/18 05:49:42;;;;;;;24.70;18.50;;;1.30;99.90;;;;;;5028351;28;20130;-71
2022/03/18 05:52:08;;;;;;;18.87;15.40;;;1.20;99.90;;;;;;5027690;28;20119;-71
2022/03/18 05:54:34;;;;;;;25.00;17.40;;;1.20;99.90;;;;;;5043248;28;20503;-72
2022/03/18 05:57:00;;;;;;;29.33;20.70;;;1.20;99.90;;;;;;5027538;28;20040;-73
2022/03/18 05:59:28;;;;;;;24.27;17.60;;;1.20;99.90;;;;;;5044912;28;20045;-71
2022/03/18 06:01:56;;;;;;;25.67;20.17;;;1.10;99.90;;;;;;5043889;28;20522;-71
2022/03/18 06:04:22;;;;;;;37.57;28.27;;;1.20;99.90;;;;;;5044802;28;20044;-71
2022/03/18 06:06:48;;;;;;;32.40;25.90;;;1.40;99.90;;;;;;5027100;28;20095;-72
2022/03/18 06:12:00;;;;;;;46.93;35.33;;;1.90;99.90;;;;;;5045060;28;20052;-71
2022/03/18 06:14:29;;;;;;;50.17;40.77;;;2.00;99.90;;;;;;5043811;28;20052;-72
2022/03/18 06:17:01;;;;;;;42.87;34.20;;;2.00;99.90;;;;;;5029804;28;20044;-72
2022/03/18 06:19:29;;;;;;;24.67;17.00;;;2.00;99.90;;;;;;5021547;28;20179;-72
2022/03/18 06:21:58;;;;;;;25.60;18.63;;;2.00;99.90;;;;;;5032308;28;20345;-72
2022/03/18 06:24:24;;;;;;;33.53;27.73;;;1.90;99.90;;;;;;5044774;28;20057;-72
2022/03/18 06:26:51;;;;;;;31.63;25.70;;;1.90;99.90;;;;;;5020246;28;20055;-72
2022/03/18 06:29:21;;;;;;;23.50;17.23;;;2.00;99.90;;;;;;5013683;28;20042;-72
2022/03/18 06:31:48;;;;;;;34.83;29.70;;;2.00;99.90;;;;;;5041384;28;20092;-72
2022/03/18 06:34:14;;;;;;;23.63;18.90;;;2.00;99.90;;;;;;5038490;28;20471;-72
2022/03/18 06:36:40;;;;;;;26.63;19.83;;;2.10;99.90;;;;;;5032935;28;20044;-72
2022/03/18 06:39:07;;;;;;;20.03;16.03;;;2.10;99.90;;;;;;5016922;28;20042;-72
2022/03/18 06:41:34;;;;;;;32.67;24.80;;;2.20;99.90;;;;;;5036166;28;20311;-73
2022/03/18 06:44:00;;;;;;;36.67;28.97;;;2.20;99.90;;;;;;5038246;28;20142;-75
2022/03/18 06:46:26;;;;;;;38.63;31.70;;;2.20;99.90;;;;;;5036648;28;20040;-75
2022/03/18 06:48:52;;;;;;;33.63;29.37;;;2.20;99.90;;;;;;5020242;28;20280;-75
2022/03/18 06:51:18;;;;;;;21.43;19.00;;;2.20;99.90;;;;;;5016473;28;20109;-75
2022/03/18 06:53:44;;;;;;;32.33;22.90;;;2.30;99.90;;;;;;5005036;28;20144;-74
2022/03/18 06:56:12;;;;;;;35.20;30.00;;;2.30;99.90;;;;;;5029109;28;20041;-75
2022/03/18 06:58:38;;;;;;;35.23;27.50;;;2.40;99.90;;;;;;5037941;28;20044;-74
2022/03/18 07:01:04;;;;;;;25.53;22.37;;;2.50;99.90;;;;;;5032029;28;20095;-74
2022/03/18 07:03:30;;;;;;;26.17;21.63;;;2.50;99.90;;;;;;5003296;28;20507;-75
2022/03/18 07:05:56;;;;;;;31.03;26.17;;;2.60;99.90;;;;;;5018111;28;20055;-75
2022/03/18 07:08:22;;;;;;;26.93;21.50;;;2.70;99.90;;;;;;5015762;28;20040;-75
2022/03/18 07:10:48;;;;;;;29.73;25.33;;;2.80;99.90;;;;;;5034553;28;20049;-75
2022/03/18 07:13:15;;;;;;;37.27;32.57;;;3.00;99.90;;;;;;5033944;28;20100;-74
2022/03/18 07:15:41;;;;;;;34.70;30.70;;;3.00;99.90;;;;;;5048820;28;20504;-74
2022/03/18 07:18:07;;;;;;;31.83;27.63;;;3.10;99.90;;;;;;5018100;28;20033;-74
2022/03/18 07:20:34;;;;;;;35.40;28.33;;;3.20;99.90;;;;;;5002543;28;20063;-74
2022/03/18 07:23:06;;;;;;;30.97;27.60;;;3.40;99.90;;;;;;5033066;28;20088;-74
2022/03/18 07:25:35;;;;;;;32.73;29.20;;;3.60;99.90;;;;;;5039768;28;20051;-74
2022/03/18 07:28:01;;;;;;;32.87;28.60;;;3.80;99.90;;;;;;5039656;28;20045;-74
2022/03/18 07:30:27;;;;;;;33.17;28.73;;;3.90;99.90;;;;;;5008455;28;20048;-74
2022/03/18 07:32:53;;;;;;;32.93;27.03;;;4.20;99.90;;;;;;5040113;28;20106;-74
2022/03/18 07:35:19;;;;;;;33.37;27.03;;;4.40;99.90;;;;;;5009203;28;20032;-75
2022/03/18 07:37:47;;;;;;;29.77;24.70;;;4.50;99.90;;;;;;5041319;28;20044;-75
2022/03/18 07:40:14;;;;;;;27.50;24.67;;;4.70;99.90;;;;;;5026000;28;20482;-71
2022/03/18 07:42:55;;;;;;;28.13;22.53;;;4.90;99.90;;;;;;5033570;28;20042;-71
2022/03/18 07:45:21;;;;;;;;;;;5.10;99.90;;;;;;5021779;28;20048;-71
2022/03/18 07:47:50;;;;;;;26.75;21.40;;;5.30;99.90;;;;;;5023275;28;20000;-71
2022/03/18 07:50:20;;;;;;;26.98;23.52;;;5.50;99.90;;;;;;5033523;28;20135;-72
2022/03/18 07:52:57;;;;;;;27.37;23.43;;;5.50;99.90;;;;;;5031615;28;20049;-72
2022/03/18 07:55:27;;;;;;;25.65;22.55;;;5.80;99.90;;;;;;5022731;28;20519;-71
2022/03/18 07:57:54;;;;;;;27.02;23.98;;;5.90;99.90;;;;;;5031089;28;20188;-72
2022/03/18 08:00:20;;;;;;;24.13;21.42;;;6.10;99.90;;;;;;5037100;28;20539;-72
2022/03/18 08:02:48;;;;;;;25.17;20.65;;;6.30;99.90;;;;;;5019205;28;20049;-72
2022/03/18 08:05:14;;;;;;;28.20;22.27;;;6.50;99.90;;;;;;5031834;28;20156;-72
2022/03/18 08:07:41;;;;;;;24.83;22.23;;;6.80;99.90;;;;;;5028729;28;20494;-72
2022/03/18 08:10:08;;;;;;;26.65;20.90;;;7.00;99.90;;;;;;5015388;28;20041;-72
2022/03/18 08:12:35;;;;;;;27.00;22.15;;;7.30;99.90;;;;;;5010735;28;20046;-72
2022/03/18 08:15:06;;;;;;;28.67;21.45;;;7.40;99.90;;;;;;5013651;28;20052;-72
2022/03/18 08:17:32;;;;;;;;;;;7.70;99.90;;;;;;5021961;28;20076;-72
2022/03/18 08:19:58;;;;;;;24.73;20.65;;;7.90;99.90;;;;;;5025811;28;20351;-71
2022/03/18 08:22:26;;;;;;;25.98;20.00;;;8.10;99.90;;;;;;5009043;28;20745;-72
2022/03/18 08:24:52;;;;;;;24.13;20.52;;;8.50;99.90;;;;;;5024878;28;20049;-71
2022/03/18 08:27:18;;;;;;;27.30;18.55;;;8.70;99.90;;;;;;5018397;28;20395;-79
2022/03/18 08:29:45;;;;;;;23.30;19.15;;;8.90;99.90;;;;;;5015708;28;20182;-78
2022/03/18 08:32:16;;;;;;;22.30;18.75;;;9.10;99.90;;;;;;5020211;28;20048;-79
2022/03/18 08:34:43;;;;;;;24.58;18.13;;;9.30;99.90;;;;;;5017960;28;20437;-78
2022/03/18 08:37:10;;;;;;;27.02;19.55;;;9.40;99.90;;;;;;5021789;28;20045;-79
2022/03/18 08:39:41;;;;;;;21.35;18.55;;;9.50;99.90;;;;;;5022023;28;20045;-72
2022/03/18 08:42:07;;;;;;;26.75;18.90;;;9.70;99.90;;;;;;5040779;28;20037;-72
2022/03/18 08:44:36;;;;;;;24.80;18.25;;;9.80;99.90;;;;;;5019597;28;20052;-72
2022/03/18 08:47:01;;;;;;;27.65;17.55;;;9.90;99.90;;;;;;5023748;28;20542;-72
2022/03/18 08:49:27;;;;;;;23.85;18.40;;;10.00;99.90;;;;;;5044937;28;20230;-72
2022/03/18 08:51:53;;;;;;;22.25;15.95;;;10.20;99.90;;;;;;5043376;28;20777;-72
2022/03/18 08:54:21;;;;;;;24.85;15.68;;;10.30;99.90;;;;;;5045450;28;20426;-72
2022/03/18 08:56:48;;;;;;;22.45;16.02;;;10.50;99.90;;;;;;5044138;28;20092;-72
2022/03/18 08:59:14;;;;;;;25.77;16.98;;;10.50;99.90;;;;;;5044908;28;20049;-72
2022/03/18 09:01:40;;;;;;;20.05;15.20;;;10.60;99.90;;;;;;5010497;28;20050;-72
2022/03/18 09:04:06;;;;;;;23.02;15.43;;;10.70;99.90;;;;;;5024996;28;20041;-72
2022/03/18 09:06:32;;;;;;;23.58;15.38;;;10.80;99.90;;;;;;5037330;28;20056;-74
2022/03/18 09:09:02;;;;;;;22.20;13.73;;;10.90;99.90;;;;;;5045435;28;20099;-73
2022/03/18 09:11:29;;;;;;;19.42;14.65;;;11.10;99.90;;;;;;5029738;28;20052;-73
2022/03/18 09:13:54;;;;;;;20.10;14.57;;;11.20;99.90;;;;;;5043465;28;20053;-73
2022/03/18 09:16:21;;;;;;;23.52;14.23;;;11.40;99.90;;;;;;5011988;28;20049;-72
2022/03/18 09:18:47;;;;;;;23.20;14.48;;;11.50;99.90;;;;;;5026524;28;20470;-72
2022/03/18 09:21:13;;;;;;;23.25;13.35;;;11.60;99.90;;;;;;5010598;28;20565;-73
2022/03/18 09:23:39;;;;;;;21.45;12.77;;;11.70;99.90;;;;;;5028163;28;20060;-72
2022/03/18 09:26:05;;;;;;;21.65;13.20;;;11.80;99.90;;;;;;5045010;28;20040;-72
2022/03/18 09:28:31;;;;;;;22.02;12.38;;;11.90;99.90;;;;;;5044214;28;20524;-72
2022/03/18 09:30:57;;;;;;;20.63;12.18;;;11.90;99.90;;;;;;5044382;28;20084;-71
2022/03/18 09:33:23;;;;;;;21.77;12.77;;;12.00;99.90;;;;;;5043464;28;20864;-72
2022/03/18 09:35:49;;;;;;;17.20;11.82;;;12.00;99.90;;;;;;5019334;28;20191;-76
2022/03/18 09:38:15;;;;;;;23.80;13.48;;;12.00;99.90;;;;;;5026647;28;20069;-72
2022/03/18 09:40:41;;;;;;;20.02;12.45;;;12.10;99.90;;;;;;5004644;28;20069;-72
2022/03/18 09:43:09;;;;;;;26.05;12.98;;;12.10;99.90;;;;;;5024213;28;20063;-73
2022/03/18 09:45:38;;;;;;;21.65;12.10;;;12.20;99.90;;;;;;5042457;28;20106;-72
2022/03/18 09:48:09;;;;;;;19.10;11.35;;;12.20;99.90;;;;;;5038134;28;20388;-72
2022/03/18 09:50:37;;;;;;;25.20;11.95;;;12.30;99.90;;;;;;5043763;28;20049;-72
2022/03/18 09:53:04;;;;;;;18.65;11.75;;;12.50;99.90;;;;;;5025083;28;20049;-72
2022/03/18 09:55:31;;;;;;;20.98;13.68;;;12.50;99.90;;;;;;5017064;28;20127;-72
2022/03/18 09:57:57;;;;;;;26.00;13.15;;;12.60;99.90;;;;;;5020372;28;20037;-73
2022/03/18 10:00:23;;;;;;;20.90;12.70;;;12.60;99.90;;;;;;5017455;28;20539;-72
2022/03/18 10:03:18;;;;;;;21.52;13.68;;;12.70;99.90;;;;;;5023921;28;20049;-72
2022/03/18 10:05:54;;;;;;;20.75;13.65;;;12.80;99.90;;;;;;5023637;28;20127;-72
2022/03/18 10:08:21;;;;;;;19.42;11.90;;;12.80;99.90;;;;;;5015183;28;20046;-72
2022/03/18 10:10:48;;;;;;;22.00;12.27;;;12.90;99.90;;;;;;4998906;28;20037;-72
2022/03/18 10:13:16;;;;;;;18.17;10.73;;;13.00;99.90;;;;;;5017159;28;20052;-72
2022/03/18 10:15:43;;;;;;;18.15;10.55;;;13.10;99.90;;;;;;5031624;28;20057;-71
2022/03/18 10:18:13;;;;;;;18.67;10.40;;;13.10;99.90;;;;;;5057586;28;20561;-71
2022/03/18 10:20:48;;;;;;;16.33;8.35;;;13.30;99.90;;;;;;5032905;28;20049;-71
2022/03/18 10:23:21;;;;;;;16.25;8.02;;;13.30;99.90;;;;;;5036993;28;20057;-72
2022/03/18 10:25:53;;;;;;;16.13;8.88;;;13.40;99.90;;;;;;5014851;28;20519;-71
2022/03/18 10:28:37;;;;;;;16.10;9.77;;;13.40;99.90;;;;;;5014547;28;20041;-72
2022/03/18 10:31:18;;;;;;;17.23;9.20;;;13.40;99.90;;;;;;5035769;28;20210;-72
2022/03/18 10:39:32;;;;;;;14.00;8.45;;;13.70;99.90;;;;;;5023417;28;20045;-78
2022/03/18 10:42:00;;;;;;;15.23;8.85;;;13.80;99.90;;;;;;5030989;28;20423;-78
2022/03/18 10:44:42;;;;;;;15.50;8.30;;;13.80;99.90;;;;;;5036200;28;20040;-79
2022/03/18 10:47:08;;;;;;;16.92;9.80;;;13.90;99.90;;;;;;5010046;28;20120;-73
2022/03/18 10:49:37;;;;;;;16.13;7.35;;;14.00;99.90;;;;;;5038209;28;20139;-74
2022/03/18 10:52:10;;;;;;;18.83;9.57;;;14.00;99.90;;;;;;5007112;28;20053;-73
2022/03/18 10:54:36;;;;;;;14.25;7.70;;;14.20;99.90;;;;;;5008165;28;20456;-73
2022/03/18 10:57:02;;;;;;;12.27;7.68;;;14.30;99.90;;;;;;5006931;28;20049;-74
2022/03/18 10:59:28;;;;;;;14.75;8.02;;;14.30;99.90;;;;;;5051611;28;20086;-71
2022/03/18 11:01:57;;;;;;;15.82;7.43;;;14.40;99.90;;;;;;5040547;28;20045;-72
2022/03/18 11:04:24;;;;;;;13.73;6.75;;;14.50;99.90;;;;;;5024591;28;20084;-71
2022/03/18 11:07:51;;;;;;;13.82;6.63;;;14.40;99.90;;;;;;5037637;28;20136;-74
2022/03/18 11:12:33;;;;;;;15.35;6.85;;;14.50;99.90;;;;;;5033792;28;20049;-74
2022/03/18 11:15:01;;;;;;;15.50;7.18;;;14.70;99.90;;;;;;5019018;28;20069;-79
2022/03/18 11:17:28;;;;;;;12.68;6.18;;;14.70;99.90;;;;;;5040629;28;20503;-77
2022/03/18 11:19:54;;;;;;;13.75;7.45;;;14.70;99.90;;;;;;5040454;28;20049;-77
2022/03/18 11:22:22;;;;;;;13.13;6.25;;;14.70;99.90;;;;;;5026313;28;20059;-79
2022/03/18 11:24:51;;;;;;;11.50;6.18;;;14.80;99.90;;;;;;5041970;28;20503;-75
2022/03/18 11:27:17;;;;;;;15.77;5.28;;;14.80;99.90;;;;;;5024303;28;20046;-76
2022/03/18 11:29:43;;;;;;;10.07;5.53;;;14.70;99.90;;;;;;5022888;28;20045;-72
2022/03/18 11:32:09;;;;;;;10.80;4.93;;;14.50;99.90;;;;;;5041926;28;20053;-72
2022/03/18 11:34:58;;;;;;;12.88;5.25;;;14.40;99.80;;;;;;5014443;28;20098;-72
2022/03/18 11:37:28;;;;;;;9.90;4.93;;;14.30;99.30;;;;;;5015934;28;20770;-71
2022/03/18 11:40:27;;;;;;;10.40;5.13;;;14.10;99.80;;;;;;5040740;28;20064;-72
2022/03/18 11:42:54;;;;;;;12.90;5.07;;;14.00;99.90;;;;;;5038953;28;20069;-71
2022/03/18 11:45:34;;;;;;;13.63;7.03;;;14.20;99.90;;;;;;5007133;28;20053;-72
2022/03/18 11:48:00;;;;;;;12.95;5.70;;;14.40;99.90;;;;;;5025923;28;20049;-71
2022/03/18 11:50:37;;;;;;;12.48;6.22;;;14.50;99.90;;;;;;5042022;28;20029;-72
2022/03/18 11:53:04;;;;;;;12.23;4.93;;;14.60;99.90;;;;;;5041354;28;20045;-72
2022/03/18 11:55:29;;;;;;;10.15;4.63;;;14.80;98.30;;;;;;5041179;28;20408;-72
2022/03/18 11:57:59;;;;;;;12.32;6.25;;;14.90;96.60;;;;;;5023311;28;20049;-72
2022/03/18 12:00:36;;;;;;;16.63;6.35;;;15.00;96.60;;;;;;5041215;28;20044;-72
2022/03/18 12:03:04;;;;;;;14.05;6.10;;;15.20;97.10;;;;;;5039408;28;20403;-74
2022/03/18 12:05:31;;;;;;;11.02;6.75;;;15.20;96.10;;;;;;5041417;28;20511;-75
2022/03/18 12:07:59;;;;;;;12.95;6.28;;;15.00;95.90;;;;;;5024454;28;20128;-76
2022/03/18 12:10:36;;;;;;;13.32;7.03;;;14.70;96.40;;;;;;5024946;28;20048;-76
2022/03/18 12:13:03;;;;;;;14.85;5.10;;;14.70;98.00;;;;;;5041611;28;20060;-75
2022/03/18 12:15:30;;;;;;;12.52;5.93;;;14.80;95.30;;;;;;5025229;28;20045;-75
2022/03/18 12:17:57;;;;;;;9.45;5.25;;;15.00;95.10;;;;;;5041278;28;20407;-76
2022/03/18 12:20:30;;;;;;;9.65;6.43;;;15.10;94.80;;;;;;5027952;28;20043;-73
2022/03/18 12:22:57;;;;;;;15.45;6.15;;;15.30;94.60;;;;;;5045793;28;20049;-72
2022/03/18 12:25:23;;;;;;;14.57;6.13;;;15.30;95.20;;;;;;5044839;28;20491;-72
2022/03/18 12:27:50;;;;;;;18.55;6.70;;;15.30;93.90;;;;;;5021382;28;20041;-72
2022/03/18 12:30:22;;;;;;;17.30;5.82;;;15.20;93.80;;;;;;5025932;28;20496;-72
2022/03/18 12:32:58;;;;;;;13.80;5.80;;;15.10;93.80;;;;;;5011665;28;20051;-72
2022/03/18 12:35:31;;;;;;;13.57;6.68;;;15.10;94.90;;;;;;5035709;28;20048;-72
2022/03/18 12:38:08;;;;;;;13.27;5.45;;;15.30;94.80;;;;;;5031148;28;20478;-73
2022/03/18 12:40:36;;;;;;;11.25;5.07;;;15.50;93.90;;;;;;5018481;28;20048;-72
2022/03/18 12:43:03;;;;;;;12.75;5.40;;;15.60;91.80;;;;;;5042504;28;20510;-71
2022/03/18 12:45:32;;;;;;;13.57;5.95;;;15.50;91.70;;;;;;5045682;28;20045;-70
2022/03/18 12:48:24;;;;;;;14.13;5.20;;;15.40;91.90;;;;;;5040150;28;20438;-70
2022/03/18 12:50:52;;;;;;;19.10;5.70;;;15.50;90.60;;;;;;5014868;28;20053;-70
2022/03/18 12:53:22;;;;;;;15.38;5.60;;;15.50;90.00;;;;;;5036860;28;20080;-74
2022/03/18 12:55:50;;;;;;;13.15;6.20;;;15.30;90.70;;;;;;5036726;28;20092;-71
2022/03/18 12:58:21;;;;;;;13.77;5.65;;;15.10;91.90;;;;;;5040080;28;20041;-71